PDT,Max TemperatureF,Mean TemperatureF,Min TemperatureF,Max Dew PointF,MeanDew PointF,Min DewpointF,Max Humidity, Mean Humidity, Min Humidity, Max Sea Level PressureIn, Mean Sea Level PressureIn, Min Sea Level PressureIn, Max VisibilityMiles, Mean VisibilityMiles, Min VisibilityMiles, Max Wind SpeedMPH, Mean Wind SpeedMPH, Max Gust SpeedMPH,PrecipitationIn, CloudCover, Events, WindDirDegrees
2013-3-1,66,54,41,32,31,28,65,49,28,30.31,30.26,30.19,12,10,10,6,2,,0.00,0,,310
2013-3-2,80,60,41,34,32,27,70,53,14,30.24,30.18,30.10,12,10,10,12,1,,0.00,0,,296
2013-3-3,77,60,44,66,42,30,100,72,20,30.14,30.08,30.02,20,11,7,9,2,,0.00,3,,298
2013-3-4,66,60,53,52,49,46,94,80,49,30.13,30.09,30.05,15,10,7,12,2,,0.00,7,,124
2013-3-5,64,58,51,52,50,46,100,87,56,30.14,30.12,30.06,10,8,3,12,2,,0.00,7,,277
2013-3-6,53,50,46,46,44,41,87,78,67,30.16,30.11,30.06,20,10,10,7,4,,0.00,5,,279
2013-3-7,62,54,46,50,44,39,100,80,42,30.05,29.99,29.90,20,10,4,8,1,,0.11,6,Rain,267
2013-3-8,53,50,46,52,47,41,100,92,67,30.10,29.95,29.83,12,6,2,12,6,18,0.77,7,Rain,163
2013-3-9,59,52,44,48,43,21,100,82,34,30.24,30.15,30.08,20,10,2,12,6,16,0.10,4,Rain,254
2013-3-10,71,55,39,45,41,37,100,82,38,30.28,30.23,30.19,12,10,5,12,1,,0.00,0,,290
2013-3-11,64,52,39,48,41,39,100,84,40,30.21,30.17,30.10,10,10,10,5,1,,0.00,0,,294
2013-3-12,80,61,42,46,44,37,100,77,26,30.10,30.07,30.01,20,10,7,9,2,,0.00,0,,288
2013-3-13,86,66,46,52,45,45,93,78,23,30.10,30.08,30.05,12,10,10,10,2,,0.00,0,,293
2013-3-14,82,68,53,54,48,39,94,56,21,30.09,30.06,30.04,15,13,12,7,1,,0.00,1,,240
2013-3-15,80,65,50,52,50,46,100,55,32,30.04,29.99,29.95,20,13,0,9,2,,0.00,3,Fog,260
2013-3-16,71,61,51,52,49,48,100,68,43,29.99,29.96,29.92,15,9,2,9,2,,0.00,3,,238
2013-3-17,68,60,51,48,48,48,88,67,49,30.03,29.99,29.96,9,6,5,7,3,,0.00,5,,-1
2013-3-18,69,61,53,50,49,48,88,68,46,30.09,30.06,30.03,12,8,4,7,3,,0.00,6,,-1
2013-3-19,71,56,55,50,48,46,77,63,46,30.10,30.08,30.05,20,11,6,12,2,,0.00,6,,290
2013-3-20,51,,51,52,52,52,100,100,100,30.07,30.07,30.07,15,15,15,0,0,,0.00,3,,-1
2013-3-21,64,58,51,52,50,48,94,77,56,29.94,29.91,29.86,10,8,7,10,4,,0.00,4,,290
2013-3-22,71,63,55,48,47,46,77,60,41,29.90,29.88,29.85,10,8,7,12,3,,0.00,5,,267
2013-3-23,71,63,55,52,50,48,88,67,43,30.02,30.00,29.96,20,12,5,9,5,,0.00,3,,305
2013-3-24,64,56,48,52,49,48,100,81,56,30.01,29.96,29.92,7,4,0,9,4,,0.00,3,Fog,275
2013-3-25,77,62,46,54,48,45,100,62,32,29.99,29.96,29.91,20,18,15,8,2,,0.00,0,Fog,220
2013-3-26,71,61,53,54,50,46,100,64,41,29.98,29.97,29.93,15,8,3,9,2,,0.00,4,,230
2013-3-27,75,66,57,48,46,43,72,48,35,30.03,30.01,29.99,20,13,7,9,3,,0.00,6,,275
2013-3-28,62,53,53,52,50,48,82,75,68,30.07,30.05,30.03,15,12,10,8,3,,0.00,4,,260
2013-3-29,75,64,53,54,53,52,94,68,44,30.14,30.09,30.06,15,11,5,12,5,,0.00,7,,292
2013-3-30,78,66,55,55,52,48,100,64,39,30.15,30.11,30.07,20,13,5,14,6,20,0.00,2,,280
2013-3-31,73,63,62,48,48,48,59,52,41,30.17,30.15,30.10,20,15,10,7,1,,0.00,2,,-1